Time;durP1;ratioP1;P1;durP2;ratioP2;P2;SDS_P1;SDS_P2;PMS_P1;PMS_P2;Temp;Humidity;BMP_temperature;BMP_pressure;BME280_temperature;BME280_humidity;BME280_pressure;Samples;Min_cycle;Max_cycle;Signal;HPM_P1;HPM_P2
2024/03/01 00:01:34;;;;;;;31.45;21.42;;;;;;;15.72;94.35;99526.75;5114573;28;20491;-78
2024/03/01 00:04:38;;;;;;;34.40;23.27;;;;;;;15.67;93.64;99526.47;5114350;28;20047;-78
2024/03/01 00:07:43;;;;;;;30.40;22.50;;;;;;;15.63;94.59;99517.06;5114282;28;20047;-77
2024/03/01 00:10:47;;;;;;;35.72;23.95;;;;;;;15.63;93.91;99526.84;5113147;28;20169;-78
2024/03/01 00:13:52;;;;;;;31.90;22.15;;;;;;;15.47;94.63;99528.91;5114440;28;20493;-78
2024/03/01 00:16:56;;;;;;;29.77;20.75;;;;;;;15.39;95.38;99520.84;5114579;28;20074;-78
2024/03/01 00:20:01;;;;;;;28.55;21.38;;;;;;;15.48;95.12;99522.47;5114514;28;20055;-76
2024/03/01 00:23:06;;;;;;;30.75;21.33;;;;;;;15.50;95.13;99513.13;5114365;28;20108;-76
2024/03/01 00:26:10;;;;;;;30.42;22.17;;;;;;;15.32;95.94;99507.22;5114305;28;20091;-76
2024/03/01 00:29:15;;;;;;;26.23;20.50;;;;;;;15.28;95.66;99510.50;5113955;28;20066;-76
2024/03/01 00:32:19;;;;;;;30.55;22.02;;;;;;;15.28;95.70;99502.38;5114460;28;20050;-76
2024/03/01 00:35:24;;;;;;;30.00;21.83;;;;;;;15.21;96.07;99512.25;5113834;28;20486;-76
2024/03/01 00:38:29;;;;;;;31.52;21.10;;;;;;;15.65;94.93;99505.03;5114106;28;20051;-76
2024/03/01 00:41:34;;;;;;;28.50;22.10;;;;;;;15.50;94.63;99502.31;5101623;28;20067;-77
2024/03/01 00:44:38;;;;;;;30.23;21.55;;;;;;;15.59;94.32;99505.75;5113989;28;20066;-76
2024/03/01 00:47:47;;;;;;;31.42;20.52;;;;;;;15.63;94.37;99491.66;5113987;28;20051;-76
2024/03/01 00:50:52;;;;;;;35.13;21.92;;;;;;;15.67;93.92;99486.75;5113784;28;20379;-76
2024/03/01 00:53:58;;;;;;;31.27;22.30;;;;;;;15.74;93.78;99478.69;5113908;28;20497;-76
2024/03/01 00:57:03;;;;;;;33.22;21.48;;;;;;;15.59;94.00;99484.97;5113850;28;20493;-76
2024/03/01 01:00:08;;;;;;;52.80;33.42;;;;;;;15.46;94.59;99476.66;5113805;28;20394;-76
2024/03/01 01:03:13;;;;;;;53.22;35.30;;;;;;;15.41;95.14;99472.81;5113845;28;20050;-76
2024/03/01 01:06:18;;;;;;;51.65;31.65;;;;;;;15.40;95.12;99473.84;5101054;28;20055;-76
2024/03/01 01:09:22;;;;;;;38.15;26.13;;;;;;;15.31;95.49;99467.69;5112543;28;20504;-77
2024/03/01 01:12:27;;;;;;;42.67;28.00;;;;;;;15.42;95.10;99466.38;5114027;28;20113;-77
2024/03/01 01:15:31;;;;;;;39.08;26.92;;;;;;;15.41;95.32;99454.72;5101397;28;20054;-77
2024/03/01 01:18:35;;;;;;;53.83;33.88;;;;;;;15.42;95.14;99452.84;5113748;28;20054;-77
2024/03/01 01:21:40;;;;;;;42.63;29.17;;;;;;;15.42;95.75;99439.34;5115708;28;20055;-77
2024/03/01 01:24:44;;;;;;;46.50;30.60;;;;;;;15.24;96.10;99438.88;5117773;28;20390;-77
2024/03/01 01:27:49;;;;;;;37.13;27.10;;;;;;;15.41;95.75;99443.91;5117792;28;20050;-77
2024/03/01 01:30:54;;;;;;;33.65;22.58;;;;;;;15.50;94.69;99436.56;5117212;28;20410;-77
2024/03/01 01:33:58;;;;;;;29.67;22.30;;;;;;;15.63;93.98;99427.78;5117774;28;20058;-77
2024/03/01 01:37:03;;;;;;;40.17;22.95;;;;;;;15.71;93.11;99423.09;5116915;28;20055;-77
2024/03/01 01:40:11;;;;;;;31.10;22.27;;;;;;;15.55;93.99;99413.31;5117474;28;20488;-77
2024/03/01 01:43:16;;;;;;;32.00;20.83;;;;;;;15.58;93.69;99412.09;5117528;28;20383;-78
2024/03/01 01:46:21;;;;;;;28.45;20.70;;;;;;;15.68;93.38;99417.25;5117273;28;20398;-78
2024/03/01 01:49:27;;;;;;;32.15;21.88;;;;;;;15.72;93.04;99407.69;5117359;28;20055;-77
2024/03/01 01:52:31;;;;;;;31.27;20.60;;;;;;;15.71;93.09;99401.44;5116721;28;20101;-78
2024/03/01 01:55:37;;;;;;;37.58;22.30;;;;;;;15.87;92.36;99401.22;5117092;28;20055;-78
2024/03/01 01:58:44;;;;;;;29.67;20.15;;;;;;;16.11;90.97;99390.03;5117149;28;20085;-78
2024/03/01 02:01:50;;;;;;;29.38;19.95;;;;;;;15.85;91.83;99369.97;5117196;28;20448;-78
2024/03/01 02:04:55;;;;;;;30.73;19.58;;;;;;;15.60;92.95;99373.00;5117035;28;20051;-76
2024/03/01 02:08:00;;;;;;;31.13;21.48;;;;;;;15.59;92.65;99360.53;5116971;28;20063;-78
2024/03/01 02:11:05;;;;;;;25.63;20.30;;;;;;;15.50;93.34;99361.66;5116877;28;20051;-78
2024/03/01 02:14:10;;;;;;;32.95;20.55;;;;;;;15.47;93.92;99351.25;5116960;28;20048;-77
2024/03/01 02:17:14;;;;;;;29.88;20.20;;;;;;;15.27;94.74;99350.13;5116590;28;20071;-77
2024/03/01 02:20:26;;;;;;;32.65;20.30;;;;;;;15.63;93.19;99343.94;5116850;28;20059;-78
2024/03/01 02:23:31;;;;;;;30.77;19.42;;;;;;;15.53;93.22;99346.91;5116403;28;20059;-77
2024/03/01 02:26:36;;;;;;;24.13;19.20;;;;;;;15.31;94.65;99346.00;5115010;28;20046;-75
2024/03/01 02:29:40;;;;;;;26.05;19.08;;;;;;;15.22;94.99;99344.44;5116390;28;20063;-77
2024/03/01 02:32:46;;;;;;;21.58;18.98;;;;;;;15.46;94.19;99346.84;5115399;28;20062;-76
2024/03/01 02:35:50;;;;;;;27.70;19.50;;;;;;;15.25;94.97;99343.22;5116029;28;20067;-76
2024/03/01 02:38:55;;;;;;;27.40;20.10;;;;;;;15.40;94.59;99338.63;5103311;28;20051;-76
2024/03/01 02:41:59;;;;;;;27.25;19.90;;;;;;;15.70;93.68;99332.16;5103603;28;20055;-76
2024/03/01 02:45:04;;;;;;;24.70;19.02;;;;;;;15.43;94.34;99339.06;5116181;28;20051;-77
2024/03/01 02:48:09;;;;;;;29.92;20.70;;;;;;;15.47;94.28;99326.91;5116242;28;20062;-78
2024/03/01 02:51:14;;;;;;;32.72;20.35;;;;;;;15.42;94.55;99321.19;5112217;28;20051;-77
2024/03/01 02:54:18;;;;;;;25.65;19.42;;;;;;;15.56;93.70;99319.50;5082544;28;20505;-77
2024/03/01 02:57:22;;;;;;;32.50;19.42;;;;;;;15.20;94.86;99311.34;5095405;28;20075;-76
2024/03/01 03:00:30;;;;;;;27.35;20.83;;;;;;;15.28;95.14;99316.63;5090365;28;20375;-77
2024/03/01 03:03:34;;;;;;;25.60;19.85;;;;;;;15.21;95.07;99314.91;5095481;28;20067;-77
2024/03/01 03:06:39;;;;;;;26.15;21.40;;;;;;;15.22;95.24;99311.16;5095271;28;20397;-75
2024/03/01 03:09:45;;;;;;;29.35;19.95;;;;;;;15.29;94.56;99303.97;5095082;28;20059;-75
2024/03/01 03:12:49;;;;;;;29.98;20.55;;;;;;;15.33;94.67;99303.38;5095040;28;20059;-75
2024/03/01 03:15:53;;;;;;;23.05;19.17;;;;;;;15.30;94.67;99298.38;5094998;28;20475;-75
2024/03/01 03:18:58;;;;;;;31.02;20.50;;;;;;;15.47;94.34;99302.56;5094854;28;20055;-75
2024/03/01 03:22:08;;;;;;;27.48;20.05;;;;;;;15.49;93.60;99299.66;5094951;28;20062;-75
2024/03/01 03:25:13;;;;;;;29.98;19.48;;;;;;;15.60;93.33;99293.75;5094857;28;20047;-75
2024/03/01 03:28:21;;;;;;;32.28;20.65;;;;;;;15.22;94.52;99290.38;5094806;28;20051;-76
2024/03/01 03:31:26;;;;;;;27.63;19.08;;;;;;;15.34;95.12;99290.72;5094679;28;20047;-76
2024/03/01 03:34:32;;;;;;;28.58;18.73;;;;;;;15.37;94.74;99284.94;5094600;28;20055;-77
2024/03/01 03:37:37;;;;;;;28.98;19.42;;;;;;;15.52;93.85;99294.72;5094485;28;20071;-75
2024/03/01 03:40:42;;;;;;;26.52;19.33;;;;;;;15.45;93.33;99293.81;5094569;28;20062;-75
2024/03/01 03:43:46;;;;;;;25.40;18.52;;;;;;;15.33;93.66;99284.44;5093787;28;20051;-75
2024/03/01 03:46:50;;;;;;;28.33;18.42;;;;;;;15.45;93.57;99291.09;5094350;28;20047;-76
2024/03/01 03:49:55;;;;;;;27.20;18.65;;;;;;;15.43;93.37;99284.19;5094472;28;20355;-77
2024/03/01 03:52:59;;;;;;;22.80;17.23;;;;;;;15.44;93.47;99280.41;5109645;28;20055;-74
2024/03/01 03:56:03;;;;;;;24.75;18.58;;;;;;;15.52;93.03;99283.88;5102089;28;20477;-75
2024/03/01 03:59:08;;;;;;;23.45;17.88;;;;;;;15.47;92.68;99280.06;5114471;28;20058;-76
2024/03/01 04:02:13;;;;;;;22.48;16.45;;;;;;;15.49;93.22;99278.00;5114527;28;20394;-76
2024/03/01 04:05:17;;;;;;;26.80;17.70;;;;;;;15.64;92.66;99281.50;5112883;28;20493;-77
2024/03/01 04:08:23;;;;;;;22.77;16.88;;;;;;;15.61;92.22;99281.88;5114494;28;20062;-76
2024/03/01 04:11:27;;;;;;;26.52;16.95;;;;;;;15.49;92.65;99280.72;5114375;28;20055;-75
2024/03/01 04:14:33;;;;;;;21.63;16.30;;;;;;;15.81;91.82;99269.38;5114015;28;20477;-75
2024/03/01 04:17:37;;;;;;;25.85;18.48;;;;;;;15.66;91.86;99278.59;5114300;28;20050;-75
2024/03/01 04:20:41;;;;;;;26.17;16.60;;;;;;;15.75;91.50;99282.84;5101475;28;20178;-75
2024/03/01 04:23:46;;;;;;;26.75;17.80;;;;;;;15.69;92.28;99281.75;5114199;28;20386;-75
2024/03/01 04:26:50;;;;;;;26.55;18.55;;;;;;;15.73;91.80;99280.31;5114181;28;20051;-75
2024/03/01 04:29:55;;;;;;;26.05;17.88;;;;;;;15.84;91.05;99287.09;5114062;28;20042;-75
2024/03/01 04:32:59;;;;;;;23.27;17.35;;;;;;;15.89;90.64;99280.06;5101529;28;20051;-77
2024/03/01 04:36:03;;;;;;;28.58;18.63;;;;;;;15.57;92.00;99276.03;5101539;28;20050;-77
2024/03/01 04:39:09;;;;;;;26.75;17.45;;;;;;;15.52;92.94;99277.63;5113549;28;20433;-77
2024/03/01 04:42:13;;;;;;;29.98;18.40;;;;;;;15.53;92.80;99273.88;5113949;28;20086;-77
2024/03/01 04:45:18;;;;;;;26.92;17.92;;;;;;;15.72;91.82;99273.25;5101351;28;20118;-77
2024/03/01 04:48:23;;;;;;;28.05;17.63;;;;;;;15.82;91.05;99270.22;5113928;28;20047;-77
2024/03/01 04:51:28;;;;;;;24.08;19.27;;;;;;;15.63;92.20;99268.19;5089322;28;20047;-77
2024/03/01 04:54:33;;;;;;;24.40;17.23;;;;;;;15.41;92.72;99269.97;5113099;28;20382;-77
2024/03/01 04:57:37;;;;;;;22.17;16.83;;;;;;;15.69;92.28;99265.53;5117993;28;20051;-77
2024/03/01 05:00:42;;;;;;;28.40;18.35;;;;;;;15.69;92.21;99262.81;5118097;28;20497;-79
2024/03/01 05:03:47;;;;;;;24.15;18.33;;;;;;;15.79;91.31;99271.44;5118021;28;20050;-78
2024/03/01 05:06:51;;;;;;;26.42;18.52;;;;;;;15.65;91.89;99268.81;5117797;28;20386;-78
2024/03/01 05:09:56;;;;;;;25.70;18.38;;;;;;;15.69;92.55;99260.13;5117920;28;20114;-78
2024/03/01 05:13:00;;;;;;;28.40;19.30;;;;;;;15.69;92.12;99262.81;5117848;28;20054;-76
2024/03/01 05:16:05;;;;;;;28.38;19.60;;;;;;;15.74;92.07;99260.38;5117829;28;20046;-77
2024/03/01 05:19:11;;;;;;;27.92;19.67;;;;;;;15.72;91.88;99261.59;5096631;28;20047;-76
2024/03/01 05:22:15;;;;;;;25.67;18.73;;;;;;;15.72;91.74;99259.72;5097229;28;20070;-77
2024/03/01 05:25:20;;;;;;;29.67;19.55;;;;;;;15.50;92.36;99263.47;5097275;28;20051;-77
2024/03/01 05:28:24;;;;;;;28.63;19.13;;;;;;;15.57;92.62;99258.97;5096438;28;20059;-77
2024/03/01 05:31:47;;;;;;;25.70;18.90;;;;;;;15.60;92.35;99262.09;5097130;28;20094;-77
2024/03/01 05:34:52;;;;;;;24.70;19.38;;;;;;;15.50;93.17;99264.28;5096935;28;20395;-76
2024/03/01 05:37:58;;;;;;;32.95;20.73;;;;;;;15.47;93.29;99261.16;5096897;28;20055;-78
2024/03/01 05:41:03;;;;;;;30.25;20.30;;;;;;;15.60;92.72;99264.00;5096894;28;20490;-77
2024/03/01 05:44:09;;;;;;;29.17;19.50;;;;;;;15.43;93.45;99251.72;5096857;28;20063;-78
2024/03/01 05:47:13;;;;;;;26.00;19.60;;;;;;;15.40;93.71;99258.34;5096824;28;20051;-78
2024/03/01 05:50:18;;;;;;;29.63;19.80;;;;;;;15.57;92.75;99251.69;5096881;28;20043;-78
2024/03/01 05:53:22;;;;;;;25.27;19.05;;;;;;;15.60;92.51;99261.28;5101630;28;20055;-78
2024/03/01 05:56:27;;;;;;;24.05;18.45;;;;;;;15.50;93.05;99274.28;5115875;28;20394;-74
2024/03/01 05:59:32;;;;;;;24.60;18.88;;;;;;;15.61;92.23;99262.94;5115677;28;20074;-76
2024/03/01 06:02:36;;;;;;;25.08;18.45;;;;;;;15.33;94.09;99268.22;5115759;28;20100;-76
2024/03/01 06:05:41;;;;;;;19.58;17.13;;;;;;;15.46;93.33;99281.09;5115728;28;20482;-76
2024/03/01 06:08:46;;;;;;;21.35;17.70;;;;;;;15.50;93.60;99271.59;5115578;28;20382;-77
2024/03/01 06:11:51;;;;;;;21.30;17.58;;;;;;;15.71;92.40;99277.00;5115639;28;20046;-77
2024/03/01 06:14:55;;;;;;;23.58;18.48;;;;;;;15.69;92.58;99284.47;5115547;28;20046;-76
2024/03/01 06:18:00;;;;;;;23.50;17.83;;;;;;;15.31;93.97;99277.56;5115189;28;20051;-76
2024/03/01 06:21:04;;;;;;;21.13;16.92;;;;;;;15.23;94.52;99289.34;5114056;28;20046;-77
2024/03/01 06:24:09;;;;;;;22.15;18.33;;;;;;;15.16;95.03;99280.31;5102955;28;20071;-78
2024/03/01 06:27:14;;;;;;;20.05;17.27;;;;;;;15.35;94.13;99277.00;5115455;28;20054;-78
2024/03/01 06:30:19;;;;;;;22.95;18.55;;;;;;;15.17;95.15;99273.88;5115347;28;20050;-78
2024/03/01 06:33:24;;;;;;;20.45;17.02;;;;;;;15.52;93.70;99272.22;5115265;28;20062;-76
2024/03/01 06:36:28;;;;;;;19.52;16.38;;;;;;;15.18;94.59;99280.97;5113094;28;20059;-77
2024/03/01 06:39:33;;;;;;;21.05;17.55;;;;;;;15.25;94.86;99279.19;5106263;28;20055;-71
2024/03/01 06:42:38;;;;;;;21.42;18.10;;;;;;;15.51;93.80;99279.50;5094688;28;20390;-72
2024/03/01 06:45:42;;;;;;;18.90;16.85;;;;;;;15.61;93.42;99276.47;5108529;28;20406;-74
2024/03/01 06:48:47;;;;;;;19.42;17.33;;;;;;;15.77;92.62;99281.63;5102231;28;20050;-71
2024/03/01 06:51:51;;;;;;;22.90;20.02;;;;;;;15.58;93.47;99285.81;5055671;28;1404989;-72
2024/03/01 06:54:57;;;;;;;21.70;16.77;;;;;;;15.47;93.64;99282.78;5093825;28;20044;-71
2024/03/01 06:58:01;;;;;;;18.02;15.85;;;;;;;15.45;93.65;99288.41;5095411;28;20387;-72
2024/03/01 07:01:07;;;;;;;17.50;15.25;;;;;;;15.36;94.13;99280.53;5095277;28;20047;-73
2024/03/01 07:04:12;;;;;;;20.08;15.45;;;;;;;15.06;95.98;99279.75;5095285;28;20091;-72
2024/03/01 07:07:18;;;;;;;18.30;13.52;;;;;;;15.25;96.10;99284.59;5095244;28;20111;-73
2024/03/01 07:10:23;;;;;;;23.95;14.00;;;;;;;15.05;97.51;99277.25;5095159;28;20066;-72
2024/03/01 07:13:28;;;;;;;20.55;14.60;;;;;;;15.08;97.24;99291.25;5093256;28;20055;-73
2024/03/01 07:16:32;;;;;;;26.38;15.35;;;;;;;15.06;97.28;99281.66;5094978;28;20075;-72
2024/03/01 07:19:37;;;;;;;21.75;15.43;;;;;;;15.00;99.31;99288.66;5092152;28;20517;-72
2024/03/01 07:22:42;;;;;;;19.90;15.30;;;;;;;15.01;98.40;99294.91;5094859;28;20466;-72
2024/03/01 07:25:46;;;;;;;21.98;14.82;;;;;;;15.16;97.87;99295.72;5094924;28;20070;-73
2024/03/01 07:28:51;;;;;;;18.45;13.50;;;;;;;14.98;98.41;99296.97;5082504;28;20486;-74
2024/03/01 07:31:56;;;;;;;19.38;15.25;;;;;;;14.88;99.36;99295.56;5094725;28;20047;-75
2024/03/01 07:35:08;;;;;;;22.10;15.73;;;;;;;15.04;98.21;99305.31;5094725;28;20051;-75
2024/03/01 07:38:13;;;;;;;17.60;14.23;;;;;;;15.07;97.02;99299.53;5082247;28;20110;-74
2024/03/01 07:41:21;;;;;;;22.33;15.45;;;;;;;15.25;97.24;99305.38;5094536;28;20050;-74
2024/03/01 07:44:26;;;;;;;21.95;15.23;;;;;;;15.29;96.50;99303.97;5082081;28;20047;-74
2024/03/01 07:47:31;;;;;;;22.67;17.02;;;;;;;15.36;96.29;99310.28;5094481;28;20074;-74
2024/03/01 07:50:38;;;;;;;25.58;16.80;;;;;;;15.67;94.78;99310.88;5094085;28;20059;-78
2024/03/01 07:53:43;;;;;;;22.15;15.95;;;;;;;15.31;96.14;99305.44;5111940;28;20070;-76
2024/03/01 07:56:48;;;;;;;26.00;15.25;;;;;;;15.24;96.56;99307.25;5102206;28;20067;-75
2024/03/01 07:59:52;;;;;;;18.98;15.13;;;;;;;15.49;96.65;99305.91;5114528;28;20496;-71
2024/03/01 08:03:09;;;;;;;20.70;14.25;;;;;;;15.31;96.99;99313.56;5114133;28;20046;-71
2024/03/01 08:06:13;;;;;;;21.23;14.10;;;;;;;15.33;96.07;99316.09;5102009;28;20382;-77
2024/03/01 08:09:26;;;;;;;22.25;13.95;;;;;;;15.09;97.95;99316.38;5114611;28;20050;-77
2024/03/01 08:12:30;;;;;;;19.83;13.55;;;;;;;15.26;96.63;99320.56;5051418;28;20119;-76
2024/03/01 08:15:35;;;;;;;20.70;14.52;;;;;;;15.06;96.83;99314.91;5040068;28;20067;-73
2024/03/01 08:18:42;;;;;;;19.15;14.15;;;;;;;15.14;97.36;99316.66;5051560;28;20600;-80
2024/03/01 08:21:48;;;;;;;21.10;13.95;;;;;;;15.30;96.19;99311.91;5038486;28;20040;-77
2024/03/01 08:24:54;;;;;;;18.50;13.25;;;;;;;15.01;98.01;99316.50;5038637;28;20052;-77
2024/03/01 08:27:58;;;;;;;20.65;14.00;;;;;;;15.27;96.91;99322.25;5048971;28;20052;-74
2024/03/01 08:31:05;;;;;;;17.88;11.90;;;;;;;15.31;96.32;99316.25;5047932;28;20060;-76
2024/03/01 08:34:48;;;;;;;18.70;12.32;;;;;;;15.32;95.83;99326.06;5051367;28;20579;-77
2024/03/01 08:37:53;;;;;;;21.33;13.60;;;;;;;15.25;96.66;99318.91;5049439;28;20060;-75
2024/03/01 08:40:57;;;;;;;16.75;12.40;;;;;;;15.32;95.85;99320.66;5049710;28;20449;-73
2024/03/01 08:44:05;;;;;;;17.38;12.40;;;;;;;15.38;95.59;99325.28;5100721;28;20066;-73
2024/03/01 08:47:37;;;;;;;15.75;12.70;;;;;;;15.25;96.50;99318.91;5113407;28;20051;-78
2024/03/01 08:50:47;;;;;;;18.30;11.55;;;;;;;15.39;95.72;99318.84;5113164;28;20070;-78
2024/03/01 08:53:52;;;;;;;18.83;12.02;;;;;;;14.90;97.30;99318.66;5101645;28;20402;-72
2024/03/01 08:57:20;;;;;;;18.25;11.10;;;;;;;15.22;96.86;99321.97;5096359;28;20039;-73
2024/03/01 09:00:49;;;;;;;13.77;10.48;;;;;;;15.18;96.37;99320.69;5110831;28;20520;-72
2024/03/01 09:03:53;;;;;;;18.33;10.27;;;;;;;15.12;96.77;99316.03;5111403;28;20050;-74
2024/03/01 09:07:08;;;;;;;20.52;16.35;;;;;;;15.14;96.81;99313.97;5092874;28;20043;-76
2024/03/01 09:10:32;;;;;;;15.80;10.93;;;;;;;15.40;95.82;99317.00;5092780;28;20552;-79
2024/03/01 09:13:37;;;;;;;;;;;;;;;15.34;95.79;99317.75;5090850;28;20371;-74
2024/03/01 09:16:42;;;;;;;14.73;10.70;;;;;;;15.34;95.92;99315.03;5092658;28;19924;-73
2024/03/01 09:19:47;;;;;;;15.55;10.40;;;;;;;15.32;96.11;99317.94;5091789;28;20047;-73
2024/03/01 09:22:52;;;;;;;13.68;10.38;;;;;;;15.14;96.58;99311.25;5092859;28;20074;-76
2024/03/01 09:26:02;;;;;;;20.88;11.27;;;;;;;14.96;97.90;99315.19;5092794;28;20055;-74
2024/03/01 09:29:07;;;;;;;17.23;10.98;;;;;;;15.04;97.06;99311.56;5092477;28;20505;-78
2024/03/01 09:32:14;;;;;;;14.30;10.80;;;;;;;15.16;96.96;99312.75;5092691;28;20047;-76
2024/03/01 09:35:19;;;;;;;15.38;11.18;;;;;;;15.23;97.16;99308.28;5090272;28;20047;-79
2024/03/01 09:38:25;;;;;;;17.02;11.73;;;;;;;15.35;95.80;99295.94;5112758;28;20058;-77
2024/03/01 09:41:55;;;;;;;18.00;11.55;;;;;;;15.27;96.20;99306.88;5113426;28;20093;-77
2024/03/01 09:45:12;;;;;;;14.57;10.77;;;;;;;15.50;94.52;99302.16;5115727;28;20051;-78
2024/03/01 09:48:59;;;;;;;16.40;11.10;;;;;;;15.53;94.70;99306.34;5115076;28;20422;-78
2024/03/01 09:52:33;;;;;;;17.13;11.40;;;;;;;15.31;95.83;99301.91;5116187;28;20050;-75
2024/03/01 09:56:29;;;;;;;13.68;10.90;;;;;;;15.49;95.67;99299.66;5104054;28;20055;-76
2024/03/01 10:00:00;;;;;;;17.77;11.32;;;;;;;15.22;96.34;99303.03;5037289;28;20060;-77
2024/03/01 10:03:28;;;;;;;13.25;10.77;;;;;;;15.60;95.01;99299.97;5115281;28;20046;-77
2024/03/01 10:06:59;;;;;;;17.08;11.38;;;;;;;15.49;95.13;99292.38;5116003;28;20055;-73
2024/03/01 10:10:18;;;;;;;15.95;11.65;;;;;;;15.61;95.42;99292.69;5116038;28;20053;-73
2024/03/01 10:13:33;;;;;;;16.38;11.52;;;;;;;15.47;95.63;99297.16;5115158;28;20394;-75
2024/03/01 10:17:01;;;;;;;17.42;11.57;;;;;;;15.40;96.42;99285.41;5116032;28;20042;-77
2024/03/01 10:20:09;;;;;;;21.85;14.80;;;;;;;15.82;95.05;99294.59;5095380;28;20055;-73
2024/03/01 10:23:35;;;;;;;18.58;11.15;;;;;;;15.38;96.88;99292.03;5088475;28;20051;-73
2024/03/01 10:26:52;;;;;;;15.55;11.38;;;;;;;15.89;94.94;99290.91;5115577;28;20047;-75
2024/03/01 10:30:20;;;;;;;16.77;11.80;;;;;;;15.60;94.98;99288.34;5095248;28;20051;-73
2024/03/01 10:33:53;;;;;;;18.33;12.00;;;;;;;15.71;94.72;99279.69;5095000;28;20051;-74
2024/03/01 10:37:05;;;;;;;17.83;12.02;;;;;;;15.72;94.95;99286.78;5082747;28;20055;-73
2024/03/01 10:40:17;;;;;;;13.35;10.77;;;;;;;16.19;93.11;99283.44;5095167;28;20051;-75
2024/03/01 10:43:36;;;;;;;18.58;12.15;;;;;;;15.85;93.61;99278.78;5095304;28;20390;-77
2024/03/01 10:47:16;;;;;;;16.95;11.60;;;;;;;15.90;94.01;99286.34;5094901;28;20058;-75
2024/03/01 10:50:22;;;;;;;17.63;12.40;;;;;;;15.71;95.13;99281.56;4993441;28;20190;-74
2024/03/01 10:53:34;;;;;;;16.95;11.73;;;;;;;15.88;94.03;99288.38;5008142;28;20060;-74
2024/03/01 10:56:39;;;;;;;18.73;13.07;;;;;;;15.59;95.45;99283.94;5032496;28;20452;-75
2024/03/01 11:00:02;;;;;;;16.02;12.27;;;;;;;15.69;95.60;99279.06;5032246;28;20662;-75
2024/03/01 11:03:12;;;;;;;17.00;11.18;;;;;;;15.90;94.64;99281.72;5032206;28;20188;-73
2024/03/01 11:06:49;;;;;;;18.73;11.93;;;;;;;15.75;95.25;99275.56;5022149;28;20511;-76
2024/03/01 11:10:24;;;;;;;15.05;11.52;;;;;;;15.78;94.21;99279.75;5009337;28;20044;-74
2024/03/01 11:13:34;;;;;;;15.43;11.70;;;;;;;15.29;96.88;99272.34;5031896;28;20057;-74
2024/03/01 11:16:43;;;;;;;19.50;13.85;;;;;;;15.49;97.14;99273.44;5030793;28;20052;-74
2024/03/01 11:19:50;;;;;;;17.90;12.95;;;;;;;15.63;96.55;99270.88;5031645;28;20517;-73
2024/03/01 11:23:07;;;;;;;18.27;13.43;;;;;;;15.44;96.96;99272.31;5029561;28;20149;-73
2024/03/01 11:26:19;;;;;;;19.85;14.60;;;;;;;15.53;97.66;99268.47;5083724;27;20050;-77
2024/03/01 11:29:41;;;;;;;20.48;14.77;;;;;;;15.41;98.16;99270.81;5134925;27;20058;-77
2024/03/01 11:32:52;;;;;;;19.90;14.65;;;;;;;15.59;95.80;99262.31;5133938;27;20050;-75
2024/03/01 11:36:10;;;;;;;22.80;16.23;;;;;;;15.56;97.17;99268.09;5134310;27;20046;-77
2024/03/01 11:39:22;;;;;;;27.27;16.88;;;;;;;15.96;94.84;99253.91;5134026;27;20054;-76
2024/03/01 11:43:11;;;;;;;23.48;17.42;;;;;;;15.42;96.98;99250.03;5133321;27;20051;-77
2024/03/01 11:46:43;;;;;;;24.92;19.55;;;;;;;15.35;97.35;99254.53;5050370;28;20071;-78
2024/03/01 11:49:58;;;;;;;28.63;18.98;;;;;;;15.24;97.99;99252.31;5050600;28;20056;-75
2024/03/01 11:53:09;;;;;;;25.92;18.83;;;;;;;14.99;98.52;99252.66;5049885;28;20064;-78
2024/03/01 11:56:38;;;;;;;25.80;18.70;;;;;;;15.47;97.67;99255.75;5038377;28;20078;-77
2024/03/01 12:00:08;;;;;;;22.80;17.17;;;;;;;15.22;98.64;99255.22;5039328;28;20068;-79
2024/03/01 12:03:29;;;;;;;22.38;16.92;;;;;;;15.52;96.94;99254.13;5053874;28;20615;-79
2024/03/01 12:06:55;;;;;;;21.40;16.02;;;;;;;15.25;98.44;99248.59;5049633;28;20052;-73
2024/03/01 12:10:17;;;;;;;20.58;15.93;;;;;;;15.61;97.48;99249.41;5050471;28;20064;-74
2024/03/01 12:13:23;;;;;;;20.15;14.55;;;;;;;15.55;97.13;99242.09;5038862;28;20266;-75
2024/03/01 12:16:44;;;;;;;20.77;14.02;;;;;;;15.71;96.68;99247.22;5078965;28;20051;-73
2024/03/01 12:19:56;;;;;;;19.77;15.02;;;;;;;16.02;95.36;99234.16;5099236;28;20135;-74
2024/03/01 12:23:06;;;;;;;19.40;13.70;;;;;;;15.51;97.30;99238.94;5091116;28;20541;-75
2024/03/01 12:26:16;;;;;;;18.58;13.52;;;;;;;15.28;98.10;99232.81;5078640;28;20051;-77
2024/03/01 12:29:35;;;;;;;17.75;13.77;;;;;;;15.37;98.11;99230.84;5090274;28;20067;-76
2024/03/01 12:33:10;;;;;;;19.70;13.02;;;;;;;15.50;97.47;99223.72;5089579;28;20549;-73
2024/03/01 12:36:19;;;;;;;19.42;14.55;;;;;;;15.56;97.29;99224.81;5089535;28;20144;-78
2024/03/01 12:39:27;;;;;;;19.23;14.77;;;;;;;15.41;98.22;99226.72;5091026;28;20446;-77
2024/03/01 12:43:01;;;;;;;19.23;13.80;;;;;;;15.57;97.44;99219.22;5111913;28;20051;-80
2024/03/01 12:46:34;;;;;;;17.48;14.00;;;;;;;15.20;99.16;99222.16;5087991;28;20055;-73
2024/03/01 12:49:58;;;;;;;20.83;15.30;;;;;;;15.42;98.94;99220.28;5091353;28;20047;-78
2024/03/01 12:53:02;;;;;;;;;;;;;;;15.42;98.90;99206.75;5091259;28;20442;-79
2024/03/01 12:56:29;;;;;;;20.75;16.45;;;;;;;15.54;97.80;99205.25;5103832;28;19916;-77
2024/03/01 12:59:36;;;;;;;20.48;16.73;;;;;;;15.84;96.72;99212.16;5108263;28;20517;-73
2024/03/01 13:03:07;;;;;;;26.73;18.63;;;;;;;16.12;95.40;99209.47;5110010;28;20047;-76
2024/03/01 13:06:12;;;;;;;23.58;18.63;;;;;;;15.78;97.54;99217.50;5109258;28;20055;-73
2024/03/01 13:09:30;;;;;;;27.23;19.98;;;;;;;15.85;95.58;99211.13;5109354;28;20055;-75
2024/03/01 13:12:36;;;;;;;29.38;21.65;;;;;;;16.05;95.55;99214.81;5109284;28;20514;-74
2024/03/01 13:16:15;;;;;;;34.58;23.13;;;;;;;15.91;95.50;99215.75;5109031;28;20390;-81
2024/03/01 13:19:27;;;;;;;34.35;25.25;;;;;;;15.90;95.25;99218.69;5114511;28;20058;-76
2024/03/01 13:22:42;;;;;;;44.58;26.20;;;;;;;16.03;95.34;99203.34;5117552;28;20047;-80
2024/03/01 13:26:05;;;;;;;34.28;24.80;;;;;;;16.02;96.41;99204.38;5117604;28;20050;-83
2024/03/01 13:29:21;;;;;;;40.70;26.95;;;;;;;16.33;94.85;99200.41;5117506;28;20059;-79
2024/03/01 13:32:36;;;;;;;39.25;26.38;;;;;;;16.08;94.14;99208.19;5117536;28;20047;-74
2024/03/01 13:35:43;;;;;;;35.30;25.27;;;;;;;16.02;95.01;99208.97;5104988;28;20046;-75
2024/03/01 13:39:29;;;;;;;36.33;26.13;;;;;;;16.16;94.45;99203.47;5104961;28;20050;-75
2024/03/01 13:42:36;;;;;;;42.08;26.30;;;;;;;16.31;94.29;99202.50;5104033;28;20505;-72
2024/03/01 13:45:42;;;;;;;35.30;24.55;;;;;;;16.34;93.61;99202.94;5113288;27;20046;-79
2024/03/01 13:48:54;;;;;;;36.55;25.08;;;;;;;16.46;93.06;99201.34;5136775;27;20058;-71
2024/03/01 13:51:59;;;;;;;35.78;25.42;;;;;;;16.38;93.74;99211.50;5115951;27;20046;-71
2024/03/01 13:55:06;;;;;;;36.78;23.88;;;;;;;16.45;93.46;99196.09;5136198;27;20460;-72
2024/03/01 13:58:12;;;;;;;36.03;24.05;;;;;;;16.50;92.64;99199.91;5136794;27;20042;-73
2024/03/01 14:01:17;;;;;;;33.00;24.58;;;;;;;16.29;93.71;99210.84;5135828;27;20105;-71
2024/03/01 14:04:22;;;;;;;34.53;24.23;;;;;;;16.57;93.43;99206.22;5101289;27;20047;-72
2024/03/01 14:07:27;;;;;;;32.20;24.00;;;;;;;16.31;93.96;99199.78;5114927;28;20051;-71
2024/03/01 14:10:32;;;;;;;33.83;23.45;;;;;;;16.41;94.02;99203.81;5116388;28;20489;-70
2024/03/01 14:13:36;;;;;;;29.77;20.42;;;;;;;16.20;94.78;99212.84;5116196;28;20046;-75
2024/03/01 14:16:45;;;;;;;31.48;20.52;;;;;;;16.35;94.05;99192.94;5120965;27;20050;-75
2024/03/01 14:19:52;;;;;;;30.20;19.58;;;;;;;16.40;93.68;99204.00;5136857;27;20058;-75
2024/03/01 14:22:57;;;;;;;24.23;18.42;;;;;;;16.35;93.99;99206.47;5135054;27;20050;-74
2024/03/01 14:26:02;;;;;;;28.98;17.45;;;;;;;16.33;94.03;99205.84;5135105;27;20054;-73
2024/03/01 14:29:07;;;;;;;26.85;17.77;;;;;;;16.44;93.67;99208.84;5135893;27;20054;-72
2024/03/01 14:32:14;;;;;;;26.25;17.65;;;;;;;16.35;93.57;99214.59;5135238;27;20527;-77